createdAt,value
2018-06-18T00:00:19.308Z,15.90
2018-06-18T00:02:19.477Z,15.91
2018-06-18T00:03:19.205Z,15.85
2018-06-18T00:04:19.093Z,15.83
2018-06-18T00:05:19.388Z,15.91
2018-06-18T00:06:19.168Z,15.93
2018-06-18T00:07:19.147Z,15.98
2018-06-18T00:08:19.383Z,15.98
2018-06-18T00:09:19.020Z,16.08
2018-06-18T00:11:18.988Z,16.09
2018-06-18T00:12:18.974Z,16.09
2018-06-18T00:13:18.969Z,16.16
2018-06-18T00:14:19.304Z,16.17
2018-06-18T00:15:19.006Z,16.08
2018-06-18T00:18:18.909Z,16.21
2018-06-18T00:19:18.875Z,16.22
2018-06-18T00:20:19.210Z,16.22
2018-06-18T00:21:18.921Z,16.21
2018-06-18T00:22:18.909Z,16.17
2018-06-18T00:23:18.820Z,16.18
2018-06-18T00:24:18.805Z,16.17
2018-06-18T00:25:18.793Z,16.17
2018-06-18T00:26:19.126Z,16.17
2018-06-18T00:27:18.840Z,16.17
2018-06-18T00:28:18.745Z,16.18
2018-06-18T00:29:18.731Z,16.16
2018-06-18T00:30:18.726Z,16.14
2018-06-18T00:31:18.704Z,16.22
2018-06-18T00:34:18.662Z,16.18
2018-06-18T00:35:18.650Z,16.14
2018-06-18T00:36:18.637Z,16.17
2018-06-18T00:37:18.632Z,16.21
2018-06-18T00:38:18.958Z,16.14
2018-06-18T00:39:18.663Z,16.14
2018-06-18T00:40:18.577Z,16.17
2018-06-18T00:41:18.617Z,16.14
2018-06-18T00:42:18.856Z,16.21
2018-06-18T00:44:18.571Z,16.10
2018-06-18T00:45:18.973Z,16.09
2018-06-18T00:46:18.495Z,16.10
2018-06-18T00:47:18.475Z,16.05
2018-06-18T00:48:18.468Z,16.10
2018-06-18T00:49:18.458Z,16.00
2018-06-18T00:50:18.484Z,16.08
2018-06-18T00:51:18.416Z,16.08
2018-06-18T00:52:18.793Z,16.08
2018-06-18T00:53:18.493Z,16.09
2018-06-18T00:54:18.380Z,16.02
2018-06-18T00:55:18.367Z,16.05
2018-06-18T00:56:18.399Z,16.08
2018-06-18T00:57:18.334Z,15.99
2018-06-18T00:58:18.424Z,16.02
2018-06-18T00:59:18.605Z,15.99
2018-06-18T01:00:18.298Z,15.99
2018-06-18T01:01:18.276Z,15.93
2018-06-18T01:02:18.317Z,15.95
2018-06-18T01:04:18.343Z,15.96
2018-06-18T01:05:18.344Z,15.93
2018-06-18T01:06:18.507Z,15.87
2018-06-18T01:07:18.203Z,15.91
2018-06-18T01:08:18.230Z,15.91
2018-06-18T01:09:18.173Z,15.88
2018-06-18T01:10:18.148Z,15.93
2018-06-18T01:11:18.141Z,15.96
2018-06-18T01:12:18.229Z,15.88
2018-06-18T01:13:18.489Z,15.80
2018-06-18T01:14:18.448Z,15.93
2018-06-18T01:15:18.162Z,15.91
2018-06-18T01:16:18.236Z,15.85
2018-06-18T01:17:18.041Z,15.88
2018-06-18T01:19:18.318Z,15.80
2018-06-18T01:21:18.144Z,15.84
2018-06-18T01:22:17.985Z,15.83
2018-06-18T01:24:18.022Z,15.69
2018-06-18T01:26:18.219Z,15.62
2018-06-18T01:27:17.958Z,15.58
2018-06-18T01:28:17.893Z,15.50
2018-06-18T01:29:17.879Z,15.43
2018-06-18T01:30:17.868Z,15.44
2018-06-18T01:31:17.847Z,15.35
2018-06-18T01:32:18.133Z,15.32
2018-06-18T01:33:17.865Z,15.27
2018-06-18T01:34:17.905Z,15.25
2018-06-18T01:35:17.788Z,15.17
2018-06-18T01:36:17.770Z,15.05
2018-06-18T01:37:17.754Z,14.95
2018-06-18T01:39:17.777Z,14.93
2018-06-18T01:40:17.710Z,14.86
2018-06-18T01:41:17.701Z,14.77
2018-06-18T01:42:17.684Z,14.77
2018-06-18T01:43:17.670Z,14.77
2018-06-18T01:44:17.960Z,14.67
2018-06-18T01:45:17.686Z,14.74
2018-06-18T01:46:17.620Z,14.66
2018-06-18T01:47:17.607Z,14.64
2018-06-18T01:48:17.598Z,14.58
2018-06-18T01:49:17.589Z,14.67
2018-06-18T01:50:17.937Z,14.53
2018-06-18T01:51:17.598Z,14.63
2018-06-18T01:52:17.536Z,14.55
2018-06-18T01:53:17.523Z,14.58
2018-06-18T01:54:17.507Z,14.55
2018-06-18T01:55:17.491Z,14.48
2018-06-18T01:56:17.772Z,14.49
2018-06-18T01:57:17.514Z,14.49
2018-06-18T01:58:17.441Z,14.33
2018-06-18T01:59:17.428Z,14.30
2018-06-18T02:00:17.417Z,14.27
2018-06-18T02:01:17.396Z,14.27
2018-06-18T02:02:17.756Z,14.40
2018-06-18T02:03:17.426Z,14.34
2018-06-18T02:05:17.338Z,14.36
2018-06-18T02:06:17.326Z,14.33
2018-06-18T02:07:17.306Z,14.28
2018-06-18T02:09:17.413Z,14.28
2018-06-18T02:10:17.352Z,14.26
2018-06-18T02:11:17.247Z,14.30
2018-06-18T02:12:17.305Z,14.21
2018-06-18T02:13:17.292Z,14.31
2018-06-18T02:14:17.197Z,14.30
2018-06-18T02:15:17.683Z,14.26
2018-06-18T02:16:17.213Z,14.21
2018-06-18T02:18:17.185Z,14.01
2018-06-18T02:19:17.123Z,14.05
2018-06-18T02:20:17.188Z,14.04
2018-06-18T02:21:17.217Z,13.93
2018-06-18T02:23:17.417Z,13.83
2018-06-18T02:24:17.046Z,13.88
2018-06-18T02:25:17.042Z,13.85
2018-06-18T02:26:17.033Z,13.88
2018-06-18T02:27:17.060Z,13.86
2018-06-18T02:28:17.062Z,13.83
2018-06-18T02:29:17.671Z,13.82
2018-06-18T02:30:17.331Z,13.86
2018-06-18T02:31:16.934Z,13.85
2018-06-18T02:32:16.921Z,13.82
2018-06-18T02:33:16.955Z,13.79
2018-06-18T02:34:16.891Z,13.79
2018-06-18T02:36:17.159Z,13.82
2018-06-18T02:37:16.849Z,13.79
2018-06-18T02:39:16.864Z,13.85
2018-06-18T02:40:16.799Z,13.78
2018-06-18T02:41:16.783Z,13.76
2018-06-18T02:42:16.770Z,13.80
2018-06-18T02:43:17.053Z,13.78
2018-06-18T02:44:16.739Z,13.76
2018-06-18T02:45:16.802Z,13.78
2018-06-18T02:46:16.810Z,13.88
2018-06-18T02:47:16.689Z,13.88
2018-06-18T02:48:16.677Z,13.90
2018-06-18T02:49:16.663Z,13.96
2018-06-18T02:50:16.946Z,13.98
2018-06-18T02:51:16.676Z,13.97
2018-06-18T02:52:16.709Z,14.03
2018-06-18T02:53:16.672Z,14.04
2018-06-18T02:54:16.575Z,14.05
2018-06-18T02:55:16.642Z,14.11
2018-06-18T02:56:16.561Z,13.97
2018-06-18T02:57:16.879Z,14.11
2018-06-18T02:58:16.584Z,14.11
2018-06-18T02:59:16.496Z,14.09
2018-06-18T03:00:16.474Z,14.09
2018-06-18T03:01:16.473Z,14.12
2018-06-18T03:02:16.453Z,14.05
2018-06-18T03:03:16.788Z,14.01
2018-06-18T03:04:16.426Z,14.11
2018-06-18T03:05:16.408Z,14.18
2018-06-18T03:06:16.393Z,14.16
2018-06-18T03:07:16.426Z,14.18
2018-06-18T03:08:16.469Z,14.21
2018-06-18T03:09:16.692Z,14.19
2018-06-18T03:10:16.320Z,14.19
2018-06-18T03:11:16.402Z,14.22
2018-06-18T03:12:16.285Z,14.16
2018-06-18T03:13:16.276Z,14.23
2018-06-18T03:14:16.260Z,14.27
2018-06-18T03:15:16.626Z,14.23
2018-06-18T03:16:16.412Z,14.23
2018-06-18T03:17:16.225Z,14.30
2018-06-18T03:18:16.200Z,14.33
2018-06-18T03:19:16.268Z,14.34
2018-06-18T03:21:16.500Z,14.40
2018-06-18T03:22:16.242Z,14.40
2018-06-18T03:24:16.102Z,14.46
2018-06-18T03:25:16.098Z,14.46
2018-06-18T03:26:16.076Z,14.45
2018-06-18T03:27:16.447Z,14.41
2018-06-18T03:28:16.051Z,14.45
2018-06-18T03:29:16.123Z,14.51
2018-06-18T03:30:16.093Z,14.41
2018-06-18T03:31:16.069Z,14.41
2018-06-18T03:32:15.989Z,14.55
2018-06-18T03:33:16.325Z,14.53
2018-06-18T03:34:15.957Z,14.53
2018-06-18T03:36:15.921Z,14.52
2018-06-18T03:37:15.930Z,14.55
2018-06-18T03:38:15.890Z,14.53
2018-06-18T03:39:16.239Z,14.58
2018-06-18T03:40:15.870Z,14.53
2018-06-18T03:41:15.927Z,14.55
2018-06-18T03:43:15.818Z,14.45
2018-06-18T03:44:15.808Z,14.51
2018-06-18T03:45:15.832Z,14.58
2018-06-18T03:46:16.072Z,14.55
2018-06-18T03:47:15.755Z,14.56
2018-06-18T03:48:15.746Z,14.61
2018-06-18T03:49:15.735Z,14.67
2018-06-18T03:50:15.811Z,14.61
2018-06-18T03:51:15.780Z,14.59
2018-06-18T03:52:15.764Z,14.63
2018-06-18T03:53:16.040Z,14.67
2018-06-18T03:55:15.628Z,14.63
2018-06-18T03:56:15.671Z,14.64
2018-06-18T03:57:15.676Z,14.73
2018-06-18T03:58:15.586Z,14.63
2018-06-18T03:59:15.876Z,14.73
2018-06-18T04:00:15.860Z,14.59
2018-06-18T04:01:15.547Z,14.66
2018-06-18T04:02:15.613Z,14.71
2018-06-18T04:04:15.576Z,14.82
2018-06-18T04:05:15.577Z,14.74
2018-06-18T04:06:15.547Z,14.77
2018-06-18T04:07:15.826Z,14.85
2018-06-18T04:08:15.444Z,14.77
2018-06-18T04:09:15.500Z,14.73
2018-06-18T04:10:15.462Z,14.89
2018-06-18T04:11:15.469Z,14.83
2018-06-18T04:12:15.428Z,14.86
2018-06-18T04:13:15.370Z,14.90
2018-06-18T04:14:15.653Z,14.93
2018-06-18T04:15:15.338Z,14.95
2018-06-18T04:16:15.373Z,14.97
2018-06-18T04:17:15.355Z,14.96
2018-06-18T04:18:15.292Z,15.04
2018-06-18T04:19:15.276Z,14.99
2018-06-18T04:21:15.646Z,15.04
2018-06-18T04:22:15.285Z,15.12
2018-06-18T04:23:15.330Z,15.04
2018-06-18T04:24:15.279Z,15.19
2018-06-18T04:25:15.190Z,15.20
2018-06-18T04:26:15.247Z,15.20
2018-06-18T04:27:15.161Z,15.15
2018-06-18T04:29:15.508Z,15.27
2018-06-18T04:30:15.113Z,15.25
2018-06-18T04:31:15.167Z,15.25
2018-06-18T04:32:15.452Z,15.30
2018-06-18T04:33:15.135Z,15.29
2018-06-18T04:34:15.192Z,15.29
2018-06-18T04:35:17.193Z,15.29
2018-06-18T04:36:15.023Z,15.30
2018-06-18T04:37:15.011Z,15.32
2018-06-18T04:38:14.996Z,15.33
2018-06-18T04:39:15.081Z,15.29
2018-06-18T04:40:14.965Z,15.26
2018-06-18T04:41:15.313Z,15.38
2018-06-18T04:42:15.017Z,15.38
2018-06-18T04:43:15.005Z,15.33
2018-06-18T04:44:15.032Z,15.38
2018-06-18T04:45:15.039Z,15.35
2018-06-18T04:46:14.965Z,15.40
2018-06-18T04:47:15.231Z,15.43
2018-06-18T04:48:14.846Z,15.52
2018-06-18T04:49:14.939Z,15.48
2018-06-18T04:50:14.817Z,15.50
2018-06-18T04:51:14.847Z,15.48
2018-06-18T04:52:14.879Z,15.59
2018-06-18T04:53:15.176Z,15.52
2018-06-18T04:54:14.762Z,15.65
2018-06-18T04:55:14.748Z,15.59
2018-06-18T04:56:14.732Z,15.66
2018-06-18T04:57:14.725Z,15.68
2018-06-18T04:59:15.733Z,15.63
2018-06-18T05:00:14.853Z,15.68
2018-06-18T05:01:14.919Z,15.69
2018-06-18T05:02:14.715Z,15.63
2018-06-18T05:03:14.867Z,15.63
2018-06-18T05:04:14.691Z,15.66
2018-06-18T05:05:14.993Z,15.59
2018-06-18T05:06:14.666Z,15.66
2018-06-18T05:07:14.653Z,15.70
2018-06-18T05:08:14.954Z,15.70
2018-06-18T05:09:14.610Z,15.90
2018-06-18T05:10:14.575Z,15.85
2018-06-18T05:11:14.890Z,15.81
2018-06-18T05:12:14.497Z,15.88
2018-06-18T05:13:14.485Z,15.81
2018-06-18T05:14:14.478Z,15.83
2018-06-18T05:15:14.460Z,15.83
2018-06-18T05:16:14.579Z,15.80
2018-06-18T05:17:14.488Z,15.84
2018-06-18T05:18:14.835Z,15.84
2018-06-18T05:19:14.403Z,15.93
2018-06-18T05:20:14.389Z,15.95
2018-06-18T05:21:14.389Z,15.88
2018-06-18T05:22:14.367Z,15.88
2018-06-18T05:23:14.395Z,15.93
2018-06-18T05:24:14.410Z,15.99
2018-06-18T05:25:15.045Z,16.02
2018-06-18T05:26:14.392Z,16.10
2018-06-18T05:27:14.389Z,16.21
2018-06-18T05:28:14.284Z,16.14
2018-06-18T05:29:14.313Z,16.17
2018-06-18T05:30:14.275Z,16.21
2018-06-18T05:31:14.235Z,16.06
2018-06-18T05:32:14.527Z,16.16
2018-06-18T05:34:14.197Z,16.32
2018-06-18T05:35:14.235Z,16.14
2018-06-18T05:36:14.294Z,16.13
2018-06-18T05:37:14.347Z,16.24
2018-06-18T05:38:14.569Z,16.22
2018-06-18T05:39:14.464Z,16.34
2018-06-18T05:40:14.174Z,16.28
2018-06-18T05:41:14.296Z,16.40
2018-06-18T05:42:14.478Z,16.46
2018-06-18T05:43:14.073Z,16.59
2018-06-18T05:44:14.064Z,16.46
2018-06-18T05:45:14.057Z,16.42
2018-06-18T05:46:14.333Z,16.59
2018-06-18T05:47:14.077Z,16.58
2018-06-18T05:48:14.019Z,16.62
2018-06-18T05:49:14.003Z,16.73
2018-06-18T05:50:14.007Z,16.82
2018-06-18T05:51:13.969Z,16.80
2018-06-18T05:52:13.955Z,16.79
2018-06-18T05:53:14.542Z,16.79
2018-06-18T05:54:13.932Z,16.84
2018-06-18T05:55:13.925Z,16.83
2018-06-18T05:56:13.912Z,16.94
2018-06-18T05:57:13.890Z,16.95
2018-06-18T05:58:13.894Z,16.94
2018-06-18T05:59:13.917Z,16.95
2018-06-18T06:00:14.159Z,17.04
2018-06-18T06:01:13.864Z,17.12
2018-06-18T06:02:13.827Z,17.14
2018-06-18T06:04:13.830Z,17.43
2018-06-18T06:05:13.854Z,17.39
2018-06-18T06:06:14.079Z,17.49
2018-06-18T06:08:13.861Z,17.62
2018-06-18T06:09:13.831Z,17.66
2018-06-18T06:10:13.733Z,17.56
2018-06-18T06:11:13.805Z,17.72
2018-06-18T06:12:14.089Z,17.83
2018-06-18T06:13:13.769Z,17.76
2018-06-18T06:14:13.761Z,17.87
2018-06-18T06:15:13.745Z,17.90
2018-06-18T06:16:13.752Z,17.91
2018-06-18T06:17:13.694Z,17.76
2018-06-18T06:18:13.930Z,17.79
2018-06-18T06:19:13.616Z,17.78
2018-06-18T06:20:13.612Z,17.84
2018-06-18T06:21:13.601Z,17.93
2018-06-18T06:22:13.591Z,17.90
2018-06-18T06:23:13.658Z,18.03
2018-06-18T06:24:14.363Z,18.08
2018-06-18T06:25:13.803Z,18.12
2018-06-18T06:26:13.694Z,18.17
2018-06-18T06:27:13.604Z,17.73
2018-06-18T06:28:13.904Z,17.71
2018-06-18T06:29:14.007Z,17.79
2018-06-18T06:30:13.900Z,17.91
2018-06-18T06:31:13.557Z,18.05
2018-06-18T06:32:13.546Z,18.06
2018-06-18T06:33:13.559Z,18.12
2018-06-18T06:34:13.453Z,18.23
2018-06-18T06:35:13.486Z,18.20
2018-06-18T06:36:13.793Z,18.31
2018-06-18T06:37:13.538Z,18.36
2018-06-18T06:38:13.389Z,18.49
2018-06-18T06:40:13.369Z,18.36
2018-06-18T06:42:13.644Z,18.26
2018-06-18T06:43:13.332Z,18.24
2018-06-18T06:44:13.429Z,18.31
2018-06-18T06:45:13.492Z,18.28
2018-06-18T06:46:13.408Z,18.15
2018-06-18T06:47:13.304Z,18.18
2018-06-18T06:48:13.338Z,18.31
2018-06-18T06:49:13.566Z,18.36
2018-06-18T06:50:13.250Z,18.48
2018-06-18T06:51:13.254Z,18.51
2018-06-18T06:52:13.248Z,18.61
2018-06-18T06:53:13.241Z,18.78
2018-06-18T06:54:13.258Z,18.75
2018-06-18T06:55:13.194Z,18.82
2018-06-18T06:56:13.498Z,18.74
2018-06-18T06:57:13.171Z,18.83
2018-06-18T06:58:13.162Z,18.76
2018-06-18T06:59:13.157Z,18.68
2018-06-18T07:00:13.266Z,18.66
2018-06-18T07:01:13.284Z,18.67
2018-06-18T07:02:13.119Z,18.71
2018-06-18T07:04:13.090Z,18.76
2018-06-18T07:05:13.130Z,18.81
2018-06-18T07:08:13.102Z,18.96
2018-06-18T07:09:13.037Z,18.88
2018-06-18T07:11:13.323Z,18.81
2018-06-18T07:12:13.090Z,18.78
2018-06-18T07:13:13.025Z,18.76
2018-06-18T07:14:13.035Z,18.86
2018-06-18T07:15:12.977Z,18.78
2018-06-18T07:16:12.983Z,18.75
2018-06-18T07:17:12.949Z,18.82
2018-06-18T07:18:13.237Z,18.78
2018-06-18T07:19:12.925Z,18.64
2018-06-18T07:20:12.965Z,18.78
2018-06-18T07:21:12.904Z,18.75
2018-06-18T07:22:12.898Z,18.81
2018-06-18T07:23:12.886Z,18.86
2018-06-18T07:24:12.889Z,18.86
2018-06-18T07:25:13.168Z,18.85
2018-06-18T07:26:13.048Z,18.94
2018-06-18T07:27:12.844Z,18.91
2018-06-18T07:29:12.813Z,19.09
2018-06-18T07:30:12.838Z,19.07
2018-06-18T07:31:13.112Z,19.15
2018-06-18T07:32:12.834Z,19.08
2018-06-18T07:33:12.779Z,19.20
2018-06-18T07:34:12.772Z,19.16
2018-06-18T07:35:12.829Z,19.16
2018-06-18T07:36:12.829Z,19.34
2018-06-18T07:37:13.110Z,19.39
2018-06-18T07:38:12.779Z,19.41
2018-06-18T07:39:12.720Z,19.41
2018-06-18T07:40:12.724Z,19.50
2018-06-18T07:41:12.683Z,19.47
2018-06-18T07:42:12.676Z,19.34
2018-06-18T07:43:12.961Z,19.35
2018-06-18T07:44:12.706Z,19.27
2018-06-18T07:45:12.642Z,19.12
2018-06-18T07:46:12.632Z,19.32
2018-06-18T07:47:12.619Z,19.41
2018-06-18T07:48:12.638Z,19.42
2018-06-18T07:50:13.051Z,19.63
2018-06-18T07:51:12.576Z,19.81
2018-06-18T07:52:12.626Z,19.45
2018-06-18T07:53:12.569Z,19.52
2018-06-18T07:54:12.543Z,19.86
2018-06-18T07:55:12.533Z,19.94
2018-06-18T07:56:12.876Z,19.79
2018-06-18T07:57:12.517Z,19.71
2018-06-18T07:58:12.511Z,19.75
2018-06-18T07:59:12.494Z,20.04
2018-06-18T08:00:12.491Z,20.39
2018-06-18T08:01:12.492Z,20.67
2018-06-18T08:02:12.815Z,21.19
2018-06-18T08:04:12.442Z,22.06
2018-06-18T08:05:12.459Z,21.41
2018-06-18T08:07:12.422Z,20.98
2018-06-18T08:09:12.770Z,21.23
2018-06-18T08:10:12.462Z,21.51
2018-06-18T08:11:12.460Z,21.48
2018-06-18T08:12:12.365Z,21.53
2018-06-18T08:13:12.373Z,21.16
2018-06-18T08:14:12.453Z,21.10
2018-06-18T08:15:12.690Z,21.05
2018-06-18T08:17:12.320Z,20.42
2018-06-18T08:18:12.308Z,20.33
2018-06-18T08:19:12.321Z,20.18
2018-06-18T08:20:12.298Z,20.17
2018-06-18T08:21:12.803Z,20.17
2018-06-18T08:22:12.382Z,20.11
2018-06-18T08:23:12.344Z,20.27
2018-06-18T08:24:12.261Z,20.55
2018-06-18T08:25:12.245Z,20.90
2018-06-18T08:26:12.244Z,20.90
2018-06-18T08:27:12.280Z,20.79
2018-06-18T08:28:12.523Z,20.80
2018-06-18T08:29:12.233Z,20.90
2018-06-18T08:30:12.311Z,20.75
2018-06-18T08:31:12.256Z,21.05
2018-06-18T08:32:12.191Z,21.10
2018-06-18T08:33:12.219Z,21.22
2018-06-18T08:34:12.160Z,21.37
2018-06-18T08:35:12.469Z,20.77
2018-06-18T08:36:12.159Z,20.79
2018-06-18T08:37:12.137Z,20.75
2018-06-18T08:38:12.124Z,20.86
2018-06-18T08:39:12.164Z,21.04
2018-06-18T08:40:12.113Z,20.86
2018-06-18T08:41:12.403Z,20.30
2018-06-18T08:43:12.163Z,20.48
2018-06-18T08:46:12.183Z,20.90
2018-06-18T08:47:12.122Z,20.73
2018-06-18T08:48:12.422Z,20.79
2018-06-18T08:49:12.108Z,20.71
2018-06-18T08:50:12.117Z,20.67
2018-06-18T08:51:12.102Z,20.68
2018-06-18T08:52:12.123Z,20.73
2018-06-18T08:53:11.996Z,20.83
2018-06-18T08:54:12.286Z,20.95
2018-06-18T08:55:11.997Z,21.14
2018-06-18T08:56:12.166Z,21.48
2018-06-18T08:58:11.992Z,21.41
2018-06-18T08:59:11.937Z,21.14
2018-06-18T09:01:12.627Z,20.90
2018-06-18T09:02:12.136Z,21.00
2018-06-18T09:03:11.961Z,20.82
2018-06-18T09:05:11.975Z,21.22
2018-06-18T09:06:11.981Z,21.41
2018-06-18T09:07:11.960Z,21.62
2018-06-18T09:08:12.149Z,21.63
2018-06-18T09:09:11.849Z,21.67
2018-06-18T09:10:11.926Z,21.73
2018-06-18T09:11:11.933Z,21.60
2018-06-18T09:12:11.868Z,21.55
2018-06-18T09:13:12.121Z,21.45
2018-06-18T09:14:12.155Z,21.19
2018-06-18T09:15:11.789Z,21.01
2018-06-18T09:16:11.861Z,20.70
2018-06-18T09:17:11.825Z,20.70
2018-06-18T09:18:11.764Z,20.46
2018-06-18T09:19:11.837Z,20.44
2018-06-18T09:20:12.119Z,20.52
2018-06-18T09:21:11.758Z,20.64
2018-06-18T09:23:11.772Z,20.65
2018-06-18T09:24:11.707Z,20.65
2018-06-18T09:25:11.715Z,20.41
2018-06-18T09:26:11.992Z,20.34
2018-06-18T09:27:11.802Z,20.53
2018-06-18T09:28:11.876Z,20.67
2018-06-18T09:29:11.736Z,20.73
2018-06-18T09:30:11.653Z,20.68
2018-06-18T09:31:11.639Z,20.70
2018-06-18T09:32:11.672Z,20.63
2018-06-18T09:33:12.009Z,20.92
2018-06-18T09:34:11.697Z,21.10
2018-06-18T09:35:11.650Z,21.18
2018-06-18T09:36:12.874Z,20.83
2018-06-18T09:37:11.578Z,20.74
2018-06-18T09:38:11.650Z,20.79
2018-06-18T09:39:11.950Z,20.73
2018-06-18T09:41:11.589Z,20.74
2018-06-18T09:42:11.531Z,20.93
2018-06-18T09:43:11.548Z,20.85
2018-06-18T09:45:11.882Z,21.11
2018-06-18T09:46:11.494Z,21.26
2018-06-18T09:47:11.534Z,21.23
2018-06-18T09:48:11.569Z,21.16
2018-06-18T09:49:11.467Z,21.05
2018-06-18T09:51:11.857Z,21.10
2018-06-18T09:52:11.548Z,21.10
2018-06-18T09:53:11.477Z,21.25
2018-06-18T09:54:11.431Z,21.40
2018-06-18T09:55:11.501Z,21.26
2018-06-18T09:56:11.411Z,21.11
2018-06-18T09:57:11.393Z,21.26
2018-06-18T09:58:11.784Z,21.20
2018-06-18T09:59:11.505Z,21.07
2018-06-18T10:00:11.637Z,21.23
2018-06-18T10:01:11.473Z,21.25
2018-06-18T10:02:11.463Z,21.38
2018-06-18T10:03:11.335Z,21.55
2018-06-18T10:04:11.322Z,21.43
2018-06-18T10:05:11.695Z,21.51
2018-06-18T10:06:11.408Z,21.28
2018-06-18T10:07:11.376Z,21.23
2018-06-18T10:08:11.431Z,21.20
2018-06-18T10:09:11.376Z,21.19
2018-06-18T10:10:11.288Z,21.14
2018-06-18T10:11:11.639Z,21.22
2018-06-18T10:12:11.255Z,21.45
2018-06-18T10:13:11.344Z,21.58
2018-06-18T10:14:11.334Z,21.73
2018-06-18T10:15:11.320Z,21.85
2018-06-18T10:16:11.299Z,21.91
2018-06-18T10:17:11.341Z,21.88
2018-06-18T10:18:11.585Z,22.21
2018-06-18T10:19:11.207Z,22.67
2018-06-18T10:20:11.237Z,23.10
2018-06-18T10:21:11.175Z,23.22
2018-06-18T10:22:11.169Z,22.80
2018-06-18T10:23:11.209Z,22.41
2018-06-18T10:24:11.178Z,22.22
2018-06-18T10:25:11.462Z,22.11
2018-06-18T10:26:11.155Z,22.12
2018-06-18T10:27:11.179Z,22.15
2018-06-18T10:28:11.120Z,21.96
2018-06-18T10:29:11.163Z,21.80
2018-06-18T10:30:11.123Z,21.45
2018-06-18T10:31:11.098Z,21.28
2018-06-18T10:33:11.174Z,21.00
2018-06-18T10:34:11.156Z,21.07
2018-06-18T10:35:11.117Z,20.73
2018-06-18T10:36:11.138Z,20.70
2018-06-18T10:37:11.139Z,20.52
2018-06-18T10:38:11.122Z,20.55
2018-06-18T10:39:11.341Z,20.64
2018-06-18T10:40:11.059Z,20.53
2018-06-18T10:41:11.070Z,20.65
2018-06-18T10:42:11.008Z,20.56
2018-06-18T10:43:11.007Z,20.71
2018-06-18T10:44:11.069Z,20.71
2018-06-18T10:46:11.281Z,20.67
2018-06-18T10:47:11.012Z,20.71
2018-06-18T10:48:10.956Z,20.68
2018-06-18T10:49:10.943Z,20.65
2018-06-18T10:50:10.948Z,20.65
2018-06-18T10:51:10.996Z,20.65
2018-06-18T10:52:11.215Z,20.56
2018-06-18T10:53:11.091Z,20.71
2018-06-18T10:54:10.956Z,20.74
2018-06-18T10:55:10.902Z,20.71
2018-06-18T10:56:10.980Z,20.73
2018-06-18T10:57:10.872Z,20.86
2018-06-18T11:00:11.216Z,21.28
2018-06-18T11:02:10.831Z,21.50
2018-06-18T11:03:11.074Z,21.51
2018-06-18T11:04:11.057Z,21.44
2018-06-18T11:06:11.279Z,21.58
2018-06-18T11:07:11.177Z,21.48
2018-06-18T11:08:10.867Z,21.62
2018-06-18T11:10:10.840Z,21.40
2018-06-18T11:11:10.837Z,21.45
2018-06-18T11:12:11.110Z,21.19
2018-06-18T11:13:10.798Z,21.25
2018-06-18T11:14:10.713Z,21.53
2018-06-18T11:15:10.712Z,21.63
2018-06-18T11:16:10.864Z,21.88
2018-06-18T11:17:11.053Z,21.74
2018-06-18T11:18:11.045Z,21.71
2018-06-18T11:20:10.661Z,21.51
2018-06-18T11:22:11.877Z,21.47
2018-06-18T11:23:10.818Z,21.56
2018-06-18T11:24:11.200Z,21.37
2018-06-18T11:25:12.074Z,21.18
2018-06-18T11:27:10.733Z,21.01
2018-06-18T11:28:11.086Z,21.14
2018-06-18T11:29:10.581Z,21.18
2018-06-18T11:30:10.963Z,21.13
2018-06-18T11:31:10.672Z,21.16
2018-06-18T11:32:10.684Z,21.05
2018-06-18T11:33:10.554Z,20.74
2018-06-18T11:34:10.550Z,20.75
2018-06-18T11:35:10.532Z,20.92
2018-06-18T11:36:10.972Z,20.88
2018-06-18T11:37:10.707Z,20.92
2018-06-18T11:38:10.768Z,21.01
2018-06-18T11:39:10.648Z,20.98
2018-06-18T11:40:10.485Z,20.90
2018-06-18T11:41:10.474Z,20.90
2018-06-18T11:42:10.565Z,20.75
2018-06-18T11:43:10.753Z,20.71
2018-06-18T11:44:10.499Z,20.92
2018-06-18T11:45:10.433Z,20.85
2018-06-18T11:46:10.421Z,20.88
2018-06-18T11:47:10.518Z,20.97
2018-06-18T11:49:10.870Z,20.88
2018-06-18T11:51:10.377Z,20.56
2018-06-18T11:52:10.365Z,20.58
2018-06-18T11:53:10.360Z,20.56
2018-06-18T11:54:10.355Z,20.52
2018-06-18T11:55:10.388Z,20.60
2018-06-18T11:56:10.624Z,20.46
2018-06-18T11:57:10.351Z,20.46
2018-06-18T11:58:10.312Z,20.46
2018-06-18T11:59:10.355Z,20.53
2018-06-18T12:00:10.302Z,20.55
2018-06-18T12:01:10.481Z,20.52
2018-06-18T12:02:10.274Z,20.50
2018-06-18T12:03:10.562Z,20.46
2018-06-18T12:04:10.253Z,20.49
2018-06-18T12:06:10.309Z,20.56
2018-06-18T12:07:10.270Z,20.68
2018-06-18T12:08:10.336Z,20.74
2018-06-18T12:09:10.610Z,20.77
2018-06-18T12:10:10.341Z,21.13
2018-06-18T12:11:10.281Z,21.23
2018-06-18T12:12:10.301Z,21.14
2018-06-18T12:13:10.205Z,21.40
2018-06-18T12:14:10.160Z,21.41
2018-06-18T12:15:10.139Z,21.40
2018-06-18T12:16:10.426Z,21.55
2018-06-18T12:17:10.123Z,21.40
2018-06-18T12:18:10.112Z,21.58
2018-06-18T12:19:10.153Z,21.45
2018-06-18T12:20:10.549Z,21.67
2018-06-18T12:21:10.090Z,21.67
2018-06-18T12:22:10.406Z,22.15
2018-06-18T12:23:10.062Z,22.58
2018-06-18T12:24:10.063Z,23.51
2018-06-18T12:25:10.094Z,23.84
2018-06-18T12:26:10.050Z,24.38
2018-06-18T12:27:10.329Z,24.63
2018-06-18T12:28:10.467Z,24.52
2018-06-18T12:29:10.040Z,24.03
2018-06-18T12:30:10.009Z,23.49
2018-06-18T12:31:10.049Z,22.70
2018-06-18T12:32:10.008Z,22.51
2018-06-18T12:34:10.277Z,22.09
2018-06-18T12:35:09.971Z,22.19
2018-06-18T12:36:09.966Z,21.82
2018-06-18T12:37:10.108Z,21.81
2018-06-18T12:38:10.205Z,21.73
2018-06-18T12:39:09.985Z,21.55
2018-06-18T12:40:10.245Z,21.80
2018-06-18T12:41:10.063Z,21.98
2018-06-18T12:42:09.931Z,22.01
2018-06-18T12:43:09.970Z,22.01
2018-06-18T12:44:09.990Z,21.93
2018-06-18T12:45:09.900Z,21.96
2018-06-18T12:46:10.255Z,21.98
2018-06-18T12:47:09.886Z,21.97
2018-06-18T12:48:09.881Z,22.11
2018-06-18T12:49:09.922Z,22.16
2018-06-18T12:50:09.873Z,22.09
2018-06-18T12:52:10.161Z,22.22
2018-06-18T12:53:09.847Z,22.46
2018-06-18T12:54:09.843Z,23.37
2018-06-18T12:55:09.968Z,23.81
2018-06-18T12:56:09.809Z,23.84
2018-06-18T12:57:09.809Z,23.71
2018-06-18T12:58:09.809Z,23.36
2018-06-18T12:59:10.094Z,22.96
2018-06-18T13:00:09.784Z,22.74
2018-06-18T13:01:09.822Z,22.68
2018-06-18T13:02:09.766Z,22.58
2018-06-18T13:03:09.765Z,22.55
2018-06-18T13:04:09.752Z,22.34
2018-06-18T13:05:09.746Z,22.33
2018-06-18T13:06:10.039Z,22.22
2018-06-18T13:07:09.790Z,22.12
2018-06-18T13:08:09.724Z,22.12
2018-06-18T13:09:09.727Z,22.04
2018-06-18T13:10:09.748Z,21.84
2018-06-18T13:11:09.704Z,21.93
2018-06-18T13:12:10.016Z,22.04
2018-06-18T13:13:09.742Z,21.94
2018-06-18T13:14:09.882Z,21.90
2018-06-18T13:15:09.673Z,21.82
2018-06-18T13:16:09.668Z,21.98
2018-06-18T13:18:09.949Z,21.98
2018-06-18T13:19:09.745Z,21.82
2018-06-18T13:20:09.701Z,22.00
2018-06-18T13:21:09.631Z,22.00
2018-06-18T13:22:09.684Z,22.15
2018-06-18T13:23:09.616Z,22.33
2018-06-18T13:24:09.898Z,22.46
2018-06-18T13:25:09.697Z,22.73
2018-06-18T13:26:09.612Z,23.49
2018-06-18T13:28:09.576Z,24.66
2018-06-18T13:29:09.550Z,25.15
2018-06-18T13:30:09.714Z,25.56
2018-06-18T13:31:09.899Z,25.04
2018-06-18T13:32:09.835Z,24.85
2018-06-18T13:33:09.526Z,25.04
2018-06-18T13:34:09.527Z,24.26
2018-06-18T13:35:09.574Z,24.00
2018-06-18T13:36:09.507Z,23.67
2018-06-18T13:37:09.916Z,23.54
2018-06-18T13:38:09.497Z,23.31
2018-06-18T13:39:09.498Z,23.46
2018-06-18T13:40:10.280Z,23.59
2018-06-18T13:41:09.577Z,23.56
2018-06-18T13:42:09.558Z,23.17
2018-06-18T13:43:22.583Z,22.89
2018-06-18T13:44:09.476Z,22.76
2018-06-18T13:45:09.531Z,22.70
2018-06-18T13:46:09.449Z,22.56
2018-06-18T13:47:09.457Z,22.62
2018-06-18T13:48:09.694Z,22.62
2018-06-18T13:49:09.468Z,22.58
2018-06-18T13:50:09.725Z,22.58
2018-06-18T13:51:09.718Z,22.74
2018-06-18T13:52:09.530Z,22.67
2018-06-18T13:54:09.506Z,22.58
2018-06-18T13:56:09.683Z,22.61
2018-06-18T13:57:09.371Z,22.48
2018-06-18T13:58:09.434Z,22.46
2018-06-18T13:59:09.397Z,22.25
2018-06-18T14:00:09.359Z,22.44
2018-06-18T14:01:09.436Z,22.58
2018-06-18T14:02:09.812Z,22.68
2018-06-18T14:03:09.317Z,22.73
2018-06-18T14:04:09.305Z,23.04